Time;durP1;ratioP1;P1;durP2;ratioP2;P2;SDS_P1;SDS_P2;PMS_P1;PMS_P2;Temp;Humidity;BMP_temperature;BMP_pressure;BME280_temperature;BME280_humidity;BME280_pressure;Samples;Min_cycle;Max_cycle;Signal;HPM_P1;HPM_P2
2022/02/19 00:00:29;;;;;;;17.77;3.25;;;5.90;99.90;;;;;;5034352;28;20131;-84
2022/02/19 00:02:54;;;;;;;23.67;3.70;;;5.90;99.90;;;;;;5055141;28;20467;-85
2022/02/19 00:05:21;;;;;;;25.80;4.40;;;6.00;99.90;;;;;;5043522;28;20052;-84
2022/02/19 00:07:47;;;;;;;19.27;3.58;;;5.90;99.90;;;;;;5050365;28;20063;-83
2022/02/19 00:10:14;;;;;;;24.42;4.75;;;5.90;99.90;;;;;;5050537;28;20044;-82
2022/02/19 00:12:40;;;;;;;23.33;4.82;;;6.10;99.90;;;;;;5035000;28;20392;-82
2022/02/19 00:15:06;;;;;;;28.35;4.35;;;5.80;99.90;;;;;;5017541;28;20033;-81
2022/02/19 00:17:32;;;;;;;32.35;4.93;;;5.70;99.90;;;;;;5047196;28;20126;-82
2022/02/19 00:20:00;;;;;;;27.77;5.22;;;5.50;99.90;;;;;;5015942;28;20468;-81
2022/02/19 00:22:26;;;;;;;16.13;3.45;;;6.10;99.90;;;;;;5013203;28;20045;-80
2022/02/19 00:24:52;;;;;;;25.75;4.60;;;5.10;99.90;;;;;;5032639;28;20154;-82
2022/02/19 00:27:18;;;;;;;38.90;4.90;;;5.10;99.90;;;;;;5033613;28;20059;-81
2022/02/19 00:29:44;;;;;;;29.17;4.45;;;5.00;99.90;;;;;;5037124;28;20041;-82
2022/02/19 00:32:10;;;;;;;24.75;4.47;;;4.70;99.90;;;;;;5032438;28;20048;-81
2022/02/19 00:34:36;;;;;;;28.73;3.97;;;4.70;99.90;;;;;;5035932;28;20041;-81
2022/02/19 00:37:02;;;;;;;28.67;4.75;;;4.70;99.90;;;;;;5049937;28;20033;-82
2022/02/19 00:39:29;;;;;;;21.55;3.70;;;4.70;99.90;;;;;;5032367;28;20044;-81
2022/02/19 00:41:55;;;;;;;34.10;6.47;;;4.70;99.90;;;;;;5017029;28;20039;-82
2022/02/19 00:44:20;;;;;;;22.15;3.53;;;5.40;99.90;;;;;;5051433;28;20120;-82
2022/02/19 00:46:46;;;;;;;24.52;4.65;;;4.80;99.90;;;;;;5035245;28;20064;-82
2022/02/19 00:49:12;;;;;;;23.77;3.92;;;4.90;99.90;;;;;;5047618;28;20045;-82
2022/02/19 00:51:38;;;;;;;18.13;3.10;;;4.70;99.90;;;;;;5040334;28;20043;-82
2022/02/19 00:54:03;;;;;;;19.80;3.38;;;4.60;99.90;;;;;;5021638;28;20080;-83
2022/02/19 00:56:29;;;;;;;22.40;3.80;;;4.70;99.90;;;;;;5035453;28;20128;-83
2022/02/19 00:58:55;;;;;;;24.67;3.40;;;4.90;99.90;;;;;;5015370;28;20756;-83
2022/02/19 01:01:22;;;;;;;17.15;3.53;;;4.90;99.90;;;;;;5034351;28;20041;-83
2022/02/19 01:03:48;;;;;;;21.67;2.67;;;5.20;99.90;;;;;;5035228;28;20102;-83
2022/02/19 01:06:13;;;;;;;25.65;3.35;;;5.20;99.90;;;;;;5034783;28;20488;-83
2022/02/19 01:08:39;;;;;;;14.68;2.42;;;5.20;99.90;;;;;;5014614;28;20040;-83
2022/02/19 01:11:05;;;;;;;26.58;3.10;;;4.80;99.90;;;;;;5033978;28;20041;-83
2022/02/19 01:13:31;;;;;;;17.42;3.72;;;5.30;99.90;;;;;;5018101;28;20123;-83
2022/02/19 01:15:58;;;;;;;20.77;3.75;;;4.80;99.90;;;;;;5020790;28;20044;-84
2022/02/19 01:18:24;;;;;;;14.50;2.80;;;4.80;99.90;;;;;;5032543;28;20059;-84
2022/02/19 01:20:50;;;;;;;23.00;3.13;;;4.80;99.90;;;;;;5022755;28;20397;-84
2022/02/19 01:23:16;;;;;;;12.48;2.08;;;5.40;99.90;;;;;;4983442;28;20049;-83
2022/02/19 01:25:41;;;;;;;20.17;2.47;;;4.80;99.90;;;;;;4953610;28;20399;-84
2022/02/19 01:28:10;;;;;;;23.25;2.83;;;4.80;99.90;;;;;;4964929;28;20063;-84
2022/02/19 01:30:36;;;;;;;16.17;2.08;;;5.00;99.90;;;;;;4963000;28;20031;-83
2022/02/19 01:33:02;;;;;;;11.88;1.40;;;4.80;99.90;;;;;;4955877;28;20668;-84
2022/02/19 01:35:27;;;;;;;7.90;1.10;;;4.50;99.90;;;;;;4967671;28;20507;-83
2022/02/19 01:37:55;;;;;;;2.55;0.80;;;4.40;99.90;;;;;;4949473;28;20053;-82
2022/02/19 01:40:21;;;;;;;7.68;1.00;;;4.20;99.90;;;;;;4955875;28;20054;-83
2022/02/19 01:42:46;;;;;;;12.25;1.73;;;4.20;99.90;;;;;;4982157;28;20045;-84
2022/02/19 01:45:13;;;;;;;12.07;1.63;;;4.40;99.90;;;;;;4980546;28;20129;-83
2022/02/19 01:47:40;;;;;;;6.47;1.42;;;4.00;99.90;;;;;;4963291;28;20077;-83
2022/02/19 01:50:07;;;;;;;14.55;1.58;;;5.30;99.90;;;;;;4949592;28;20037;-84
2022/02/19 01:52:33;;;;;;;18.42;2.05;;;4.30;99.90;;;;;;4980350;28;20042;-84
2022/02/19 01:54:58;;;;;;;12.45;1.70;;;5.20;99.90;;;;;;5018416;28;20045;-84
2022/02/19 01:57:25;;;;;;;11.18;2.00;;;5.10;99.90;;;;;;5015666;28;20040;-85
2022/02/19 01:59:51;;;;;;;16.33;2.60;;;4.30;99.90;;;;;;5053361;28;20033;-85
2022/02/19 02:02:17;;;;;;;10.75;2.30;;;4.40;99.90;;;;;;5037524;28;20384;-84
2022/02/19 02:04:43;;;;;;;21.67;2.05;;;5.10;99.90;;;;;;5048416;28;20036;-83
2022/02/19 02:07:09;;;;;;;25.42;2.90;;;4.40;99.90;;;;;;5053153;28;20032;-84
2022/02/19 02:09:36;;;;;;;13.18;2.00;;;5.40;99.90;;;;;;5031016;28;20502;-83
2022/02/19 02:12:02;;;;;;;13.80;1.92;;;4.50;99.90;;;;;;5070700;28;20139;-83
2022/02/19 02:14:29;;;;;;;10.43;1.63;;;4.50;99.90;;;;;;5055460;28;20039;-82
2022/02/19 02:16:55;;;;;;;12.77;2.35;;;5.50;99.90;;;;;;5034708;28;20028;-83
2022/02/19 02:19:20;;;;;;;13.13;1.60;;;5.80;99.90;;;;;;5053674;28;20036;-82
2022/02/19 02:21:46;;;;;;;7.28;1.42;;;4.60;99.90;;;;;;5074242;28;20102;-84
2022/02/19 02:24:12;;;;;;;3.60;0.80;;;5.70;99.90;;;;;;5052763;28;20036;-82
2022/02/19 02:26:39;;;;;;;3.30;0.65;;;4.20;99.90;;;;;;5030599;28;20099;-82
2022/02/19 02:29:05;;;;;;;3.97;0.40;;;4.70;99.90;;;;;;5000672;28;20444;-83
2022/02/19 02:31:31;;;;;;;1.42;0.35;;;3.90;99.90;;;;;;5014551;28;20076;-84
2022/02/19 02:33:58;;;;;;;2.58;0.30;;;3.80;99.90;;;;;;5031412;28;20065;-84
2022/02/19 02:36:24;;;;;;;2.78;0.22;;;3.70;99.90;;;;;;5016487;28;20049;-84
2022/02/19 02:38:53;;;;;;;1.67;0.30;;;3.60;99.90;;;;;;4996196;28;20112;-85
2022/02/19 02:41:21;;;;;;;1.85;0.28;;;3.60;99.90;;;;;;4995431;28;20064;-85
2022/02/19 02:43:47;;;;;;;3.35;0.52;;;3.70;99.90;;;;;;4997599;28;20075;-85
2022/02/19 02:46:12;;;;;;;3.85;0.60;;;4.00;99.90;;;;;;5033469;28;20465;-85
2022/02/19 02:48:38;;;;;;;2.75;0.60;;;4.40;99.90;;;;;;5018184;28;20112;-85
2022/02/19 02:51:05;;;;;;;7.55;0.65;;;3.80;99.90;;;;;;5018314;28;20061;-85
2022/02/19 02:53:31;;;;;;;4.22;0.85;;;4.50;99.90;;;;;;5002270;28;20080;-85
2022/02/19 02:55:57;;;;;;;6.80;1.20;;;4.20;99.90;;;;;;5021574;28;20046;-85
2022/02/19 02:58:23;;;;;;;8.07;0.68;;;4.90;99.90;;;;;;5051854;28;20048;-86
2022/02/19 03:00:48;;;;;;;3.33;0.57;;;4.10;99.90;;;;;;5041895;28;20115;-86
2022/02/19 03:03:14;;;;;;;3.50;0.52;;;4.90;99.90;;;;;;5059405;28;20040;-87
2022/02/19 03:05:41;;;;;;;1.45;0.35;;;4.10;99.90;;;;;;5057796;28;20056;-87
2022/02/19 03:08:07;;;;;;;1.33;0.30;;;5.00;99.90;;;;;;5042718;28;20037;-85
2022/02/19 03:10:33;;;;;;;4.38;0.60;;;5.10;99.90;;;;;;5066204;28;20072;-85
2022/02/19 03:12:59;;;;;;;10.40;1.13;;;4.10;99.90;;;;;;5044480;28;20060;-86
2022/02/19 03:15:24;;;;;;;5.15;0.77;;;5.10;99.90;;;;;;5056717;28;20044;-86
2022/02/19 03:17:50;;;;;;;5.47;0.85;;;4.10;99.90;;;;;;5057240;28;20040;-86
2022/02/19 03:20:21;;;;;;;4.25;0.95;;;5.30;99.90;;;;;;5089061;28;20027;-85
2022/02/19 03:22:48;;;;;;;5.63;0.63;;;4.10;99.90;;;;;;5060238;28;20476;-86
2022/02/19 03:25:15;;;;;;;5.13;1.08;;;4.70;99.90;;;;;;5072577;28;20356;-85
2022/02/19 03:27:42;;;;;;;10.57;0.98;;;4.30;99.90;;;;;;5061389;28;20043;-85
2022/02/19 03:30:09;;;;;;;4.75;1.05;;;4.30;99.90;;;;;;5048370;28;20032;-85
2022/02/19 03:32:38;;;;;;;6.00;1.05;;;4.30;99.90;;;;;;5079465;28;20439;-86
2022/02/19 03:35:06;;;;;;;6.22;0.95;;;5.60;99.90;;;;;;5039096;28;20040;-86
2022/02/19 03:37:36;;;;;;;6.45;1.05;;;4.30;99.90;;;;;;5055402;28;20128;-86
2022/02/19 03:40:06;;;;;;;4.05;0.90;;;4.30;99.90;;;;;;5055840;28;20126;-86
2022/02/19 03:42:40;;;;;;;9.20;0.80;;;4.30;99.90;;;;;;5035980;28;20402;-86
2022/02/19 03:45:09;;;;;;;2.38;0.50;;;4.40;99.90;;;;;;5073308;28;20493;-86
2022/02/19 03:47:35;;;;;;;4.05;0.40;;;4.20;99.90;;;;;;5050460;28;22073;-86
2022/02/19 03:50:06;;;;;;;6.63;0.80;;;5.10;99.90;;;;;;5039990;28;20044;-86
2022/02/19 03:52:32;;;;;;;5.80;0.93;;;4.20;99.90;;;;;;5055886;28;20119;-85
2022/02/19 03:54:58;;;;;;;2.75;0.70;;;5.40;99.90;;;;;;5049317;28;20047;-85
2022/02/19 03:57:24;;;;;;;4.10;0.63;;;4.90;99.90;;;;;;5057843;28;20040;-86
2022/02/19 03:59:50;;;;;;;6.65;0.90;;;4.20;99.90;;;;;;5073269;28;20341;-85
2022/02/19 04:02:15;;;;;;;1.08;0.50;;;5.30;99.90;;;;;;5059266;28;20048;-87
2022/02/19 04:04:43;;;;;;;4.45;0.95;;;4.60;99.90;;;;;;5075714;28;20056;-86
2022/02/19 04:07:09;;;;;;;6.80;1.10;;;4.20;99.90;;;;;;5045127;28;20440;-86
2022/02/19 04:09:35;;;;;;;8.15;1.20;;;5.50;99.90;;;;;;5057220;28;20052;-86
2022/02/19 04:12:01;;;;;;;5.80;1.25;;;4.30;99.90;;;;;;5076535;28;20116;-86
2022/02/19 04:14:26;;;;;;;7.47;1.00;;;4.20;99.90;;;;;;5031992;28;20148;-86
2022/02/19 04:16:52;;;;;;;14.50;1.40;;;5.20;99.90;;;;;;5060384;28;20047;-85
2022/02/19 04:19:18;;;;;;;6.90;1.00;;;4.90;99.90;;;;;;5039101;28;20044;-85
2022/02/19 04:21:43;;;;;;;6.82;1.48;;;5.40;99.90;;;;;;5072852;28;20049;-84
2022/02/19 04:24:09;;;;;;;7.82;0.82;;;4.70;99.90;;;;;;5054463;28;20101;-85
2022/02/19 04:26:35;;;;;;;3.95;0.80;;;4.10;99.90;;;;;;5041057;28;20488;-85
2022/02/19 04:29:00;;;;;;;4.15;0.70;;;4.10;99.90;;;;;;5060489;28;20039;-85
2022/02/19 04:31:26;;;;;;;4.63;0.60;;;4.10;99.90;;;;;;5060429;28;20049;-85
2022/02/19 04:33:52;;;;;;;5.60;1.13;;;4.20;99.90;;;;;;5055691;28;20033;-85
2022/02/19 04:36:17;;;;;;;8.95;1.48;;;4.10;99.90;;;;;;5040368;28;20123;-86
2022/02/19 04:38:43;;;;;;;11.90;1.52;;;4.40;99.90;;;;;;5041788;28;20052;-86
2022/02/19 04:41:09;;;;;;;7.75;1.00;;;5.30;99.90;;;;;;5041779;28;20047;-86
2022/02/19 04:43:34;;;;;;;6.78;1.17;;;4.80;99.90;;;;;;5053197;28;20533;-86
2022/02/19 04:46:00;;;;;;;19.40;1.65;;;4.10;99.90;;;;;;5050811;28;20403;-86
2022/02/19 04:48:26;;;;;;;8.90;1.13;;;5.40;99.90;;;;;;5053597;28;22234;-86
2022/02/19 04:50:51;;;;;;;9.82;1.25;;;4.10;99.90;;;;;;5037785;28;20033;-86
2022/02/19 04:53:17;;;;;;;11.20;1.15;;;4.10;99.90;;;;;;5052811;28;20162;-87
2022/02/19 04:55:43;;;;;;;13.25;1.92;;;4.30;99.90;;;;;;5072965;28;20376;-86
2022/02/19 04:58:09;;;;;;;8.70;1.63;;;4.10;99.90;;;;;;5037900;28;20544;-86
2022/02/19 05:00:34;;;;;;;11.77;1.90;;;5.10;99.90;;;;;;5072841;28;20458;-85
2022/02/19 05:03:00;;;;;;;13.45;1.50;;;4.60;99.90;;;;;;5059893;28;20062;-85
2022/02/19 05:05:26;;;;;;;9.68;1.83;;;4.10;99.90;;;;;;5060221;28;20444;-85
2022/02/19 05:07:51;;;;;;;9.02;1.80;;;4.10;99.90;;;;;;5054111;28;20123;-85
2022/02/19 05:10:17;;;;;;;10.52;1.40;;;4.00;99.90;;;;;;5053742;28;20388;-85
2022/02/19 05:12:44;;;;;;;16.02;1.80;;;5.00;99.90;;;;;;5068480;28;20028;-83
2022/02/19 05:18:34;;;;;;;15.05;2.65;;;3.80;99.90;;;;;;5069879;28;20054;-85
2022/02/19 05:21:00;;;;;;;27.05;3.67;;;3.80;99.90;;;;;;5046160;28;20380;-84
2022/02/19 05:23:26;;;;;;;24.23;2.95;;;4.90;99.90;;;;;;5074836;28;20456;-84
2022/02/19 05:25:51;;;;;;;15.68;2.15;;;3.80;99.90;;;;;;5043277;28;20040;-83
2022/02/19 05:28:17;;;;;;;6.65;1.58;;;3.70;99.90;;;;;;5045988;28;20131;-83
2022/02/19 05:30:44;;;;;;;9.07;1.45;;;3.60;99.90;;;;;;5061722;28;20083;-84
2022/02/19 05:33:10;;;;;;;10.93;1.70;;;3.40;99.90;;;;;;5058293;28;20044;-85
2022/02/19 05:35:36;;;;;;;6.57;1.30;;;4.40;99.90;;;;;;5043192;28;20032;-84
2022/02/19 05:38:01;;;;;;;13.85;2.15;;;4.30;99.90;;;;;;5045919;28;20541;-85
2022/02/19 05:40:30;;;;;;;12.57;1.77;;;3.70;99.90;;;;;;5060351;28;20094;-85
2022/02/19 05:42:56;;;;;;;14.00;2.10;;;3.30;99.90;;;;;;5080086;28;20463;-85
2022/02/19 05:45:22;;;;;;;15.52;2.22;;;3.30;99.90;;;;;;5058144;28;20399;-85
2022/02/19 05:47:47;;;;;;;17.42;2.40;;;3.30;99.90;;;;;;5057048;28;20040;-86
2022/02/19 05:50:16;;;;;;;20.50;2.75;;;3.70;99.90;;;;;;5036918;28;20146;-90
2022/02/19 05:52:42;;;;;;;20.58;2.90;;;3.60;99.90;;;;;;5038299;28;20048;-89
2022/02/19 05:55:08;;;;;;;19.27;2.53;;;3.60;99.90;;;;;;5054098;28;20099;-88
2022/02/19 05:57:40;;;;;;;28.33;4.03;;;4.20;99.90;;;;;;5039302;28;20395;-88
2022/02/19 06:00:07;;;;;;;20.60;3.17;;;4.10;99.90;;;;;;5033085;28;20043;-84
2022/02/19 06:02:32;;;;;;;20.38;2.72;;;4.10;99.90;;;;;;5036661;28;20072;-86
2022/02/19 06:04:58;;;;;;;23.40;3.30;;;4.20;99.90;;;;;;5056347;28;20068;-85
2022/02/19 06:07:23;;;;;;;23.45;3.78;;;4.20;99.90;;;;;;5053896;28;20044;-85
2022/02/19 06:09:49;;;;;;;31.48;3.70;;;5.40;99.90;;;;;;5053572;28;20045;-90
2022/02/19 06:12:15;;;;;;;18.33;2.50;;;4.30;99.90;;;;;;5053655;28;20097;-85
2022/02/19 06:14:40;;;;;;;28.77;3.50;;;5.30;99.90;;;;;;5035759;28;20370;-86
2022/02/19 06:17:06;;;;;;;22.00;3.15;;;4.30;99.90;;;;;;5053303;28;20107;-84
2022/02/19 06:19:32;;;;;;;33.08;4.18;;;5.00;99.90;;;;;;5082803;28;20028;-87
2022/02/19 06:21:57;;;;;;;26.70;4.00;;;4.30;99.90;;;;;;5056886;28;20517;-86
2022/02/19 06:24:23;;;;;;;23.02;3.20;;;4.90;99.90;;;;;;5059027;28;20399;-87
2022/02/19 06:26:48;;;;;;;20.70;3.20;;;4.90;99.90;;;;;;5060434;28;20088;-87
2022/02/19 06:29:14;;;;;;;28.38;3.78;;;4.30;99.90;;;;;;5058801;28;20170;-87
2022/02/19 06:31:40;;;;;;;23.33;3.90;;;5.40;99.90;;;;;;5041216;28;20377;-87
2022/02/19 06:34:05;;;;;;;31.67;3.60;;;4.80;99.90;;;;;;5058450;28;20045;-86
2022/02/19 06:36:31;;;;;;;25.48;3.60;;;5.40;99.90;;;;;;5050573;28;20037;-86
2022/02/19 06:38:57;;;;;;;24.00;2.92;;;4.60;99.90;;;;;;5069325;28;20387;-86
2022/02/19 06:41:22;;;;;;;29.95;2.90;;;4.30;99.90;;;;;;5055371;28;20123;-86
2022/02/19 06:43:48;;;;;;;18.73;2.00;;;4.40;99.90;;;;;;5034894;28;20119;-87
2022/02/19 06:46:14;;;;;;;21.83;3.13;;;4.60;99.90;;;;;;5029651;28;20040;-86
2022/02/19 06:48:40;;;;;;;21.25;3.28;;;4.40;99.90;;;;;;5033294;28;20503;-86
2022/02/19 06:51:05;;;;;;;25.00;2.78;;;4.40;99.90;;;;;;5047800;28;20044;-88
2022/02/19 06:53:31;;;;;;;23.23;2.90;;;5.40;99.90;;;;;;5035285;28;20403;-91
2022/02/19 06:55:57;;;;;;;21.25;2.42;;;4.30;99.90;;;;;;5052866;28;20036;-88
2022/02/19 06:58:23;;;;;;;24.25;3.58;;;4.10;99.90;;;;;;5057403;28;20519;-87
2022/02/19 07:00:51;;;;;;;24.02;3.17;;;4.20;99.90;;;;;;5082905;28;20040;-77
2022/02/19 07:03:26;;;;;;;24.52;3.90;;;4.10;99.90;;;;;;5052294;28;20044;-92
2022/02/19 07:05:53;;;;;;;36.45;4.07;;;4.10;99.90;;;;;;5037651;28;20441;-84
2022/02/19 07:08:20;;;;;;;17.15;3.17;;;4.00;99.90;;;;;;5048913;28;20052;-86
2022/02/19 07:10:46;;;;;;;24.05;3.63;;;4.00;99.90;;;;;;5041693;28;20471;-84
2022/02/19 07:13:12;;;;;;;16.55;2.30;;;4.10;99.90;;;;;;5036487;28;20045;-86
2022/02/19 07:15:39;;;;;;;15.43;1.83;;;4.10;99.90;;;;;;5048351;28;20383;-86
2022/02/19 07:18:04;;;;;;;22.35;2.38;;;4.30;99.90;;;;;;5036509;28;20048;-85
2022/02/19 07:20:36;;;;;;;24.23;3.10;;;4.50;99.90;;;;;;5057360;28;20036;-85
2022/02/19 07:23:01;;;;;;;20.77;2.75;;;4.50;99.90;;;;;;5052721;28;20500;-83
2022/02/19 07:25:30;;;;;;;23.08;3.50;;;5.30;99.90;;;;;;5048709;28;20061;-83
2022/02/19 07:27:56;;;;;;;18.95;2.33;;;5.50;99.90;;;;;;5081402;28;20050;-84
2022/02/19 07:30:26;;;;;;;17.85;2.15;;;4.40;99.90;;;;;;5043261;28;20523;-85
2022/02/19 07:32:52;;;;;;;14.75;1.92;;;4.50;99.90;;;;;;5048251;28;20153;-83
2022/02/19 07:35:19;;;;;;;17.38;2.00;;;4.60;99.90;;;;;;5063319;28;20059;-82
2022/02/19 07:37:45;;;;;;;12.02;2.13;;;4.40;99.90;;;;;;5064598;28;20438;-82
2022/02/19 07:40:11;;;;;;;23.60;3.15;;;4.70;99.90;;;;;;5059250;28;20063;-81
2022/02/19 07:42:37;;;;;;;18.95;2.85;;;5.10;99.90;;;;;;5056652;28;20044;-81
2022/02/19 07:45:04;;;;;;;27.38;3.28;;;4.60;99.90;;;;;;5054773;28;20454;-89
2022/02/19 07:47:32;;;;;;;22.25;2.90;;;4.60;99.90;;;;;;5040695;28;20476;-84
2022/02/19 07:58:56;;;;;;;8.18;1.23;;;5.50;99.90;;;;;;4994428;28;20042;-84
2022/02/19 08:01:22;;;;;;;15.40;2.00;;;3.90;99.90;;;;;;5002824;28;20544;-85
2022/02/19 08:03:48;;;;;;;25.27;2.22;;;5.00;99.90;;;;;;4996609;28;20046;-86
2022/02/19 08:06:14;;;;;;;18.98;2.17;;;4.00;99.90;;;;;;4992333;28;20057;-86
2022/02/19 08:08:39;;;;;;;11.43;2.25;;;4.20;99.90;;;;;;4993601;28;20041;-88
2022/02/19 08:11:06;;;;;;;11.35;2.03;;;4.10;99.90;;;;;;4998813;28;20057;-84
2022/02/19 08:13:32;;;;;;;19.45;2.28;;;4.10;99.90;;;;;;4997582;28;20136;-87
2022/02/19 08:15:58;;;;;;;22.27;3.05;;;4.20;99.90;;;;;;5025558;28;20500;-84
2022/02/19 08:18:24;;;;;;;17.83;2.35;;;4.20;99.90;;;;;;4989237;28;20188;-83
2022/02/19 08:20:51;;;;;;;21.23;2.70;;;4.30;99.90;;;;;;4993884;28;20519;-83
2022/02/19 08:23:19;;;;;;;23.88;2.90;;;4.70;99.90;;;;;;4993820;28;20046;-83
2022/02/19 08:25:48;;;;;;;25.63;3.03;;;4.60;99.90;;;;;;5019510;28;20050;-86
2022/02/19 08:28:14;;;;;;;22.45;3.05;;;4.50;99.90;;;;;;5017220;28;20385;-82
2022/02/19 08:30:42;;;;;;;17.40;2.67;;;5.40;99.90;;;;;;5000227;28;20040;-88
2022/02/19 08:33:09;;;;;;;21.23;2.97;;;5.10;99.90;;;;;;5050014;28;20105;-89
2022/02/19 08:35:37;;;;;;;17.10;2.08;;;4.70;99.90;;;;;;5048961;28;20059;-88
2022/02/19 08:38:03;;;;;;;23.90;2.70;;;4.80;99.90;;;;;;5044399;28;20058;-87
2022/02/19 08:40:29;;;;;;;15.63;2.25;;;4.90;99.90;;;;;;5042854;28;20411;-84
2022/02/19 08:42:55;;;;;;;13.57;1.77;;;5.00;99.90;;;;;;5048345;28;20057;-86
2022/02/19 08:45:21;;;;;;;8.45;2.13;;;4.80;99.90;;;;;;5052709;28;20040;-84
2022/02/19 08:47:51;;;;;;;12.65;1.67;;;4.60;99.90;;;;;;5053040;28;20029;-84
2022/02/19 08:50:17;;;;;;;10.43;1.70;;;4.50;99.90;;;;;;5038235;28;20055;-84
2022/02/19 08:53:03;;;;;;;14.55;2.13;;;4.60;99.90;;;;;;5064138;28;20036;-87
2022/02/19 08:55:29;;;;;;;22.33;3.33;;;5.50;99.90;;;;;;5042563;28;20037;-82
2022/02/19 08:57:55;;;;;;;24.45;2.83;;;4.80;99.90;;;;;;5062730;28;20139;-86
2022/02/19 09:00:22;;;;;;;18.02;2.35;;;4.80;99.90;;;;;;5041021;28;20072;-86
2022/02/19 09:02:48;;;;;;;22.23;3.05;;;5.00;99.90;;;;;;5043455;28;20407;-88
2022/02/19 09:13:02;;;;;;;23.27;2.90;;;5.10;99.90;;;;;;5009412;28;20049;-84
2022/02/19 09:16:00;;;;;;;30.98;3.20;;;5.30;99.90;;;;;;5006983;28;20071;-86
2022/02/19 09:18:54;;;;;;;;;;;;;;;;;;;;;
2022/02/19 09:24:56;;;;;;;20.35;3.17;;;5.40;99.90;;;;;;4987643;28;20212;-83
2022/02/19 09:27:22;;;;;;;18.23;1.88;;;6.50;99.90;;;;;;4984655;28;20160;-83
2022/02/19 09:30:05;;;;;;;22.52;2.88;;;5.70;99.90;;;;;;4993409;28;20062;-82
2022/02/19 09:32:31;;;;;;;19.42;3.00;;;5.60;99.90;;;;;;4971156;28;20042;-83
2022/02/19 09:34:56;;;;;;;23.58;3.10;;;6.80;99.90;;;;;;5009711;28;20089;-81
2022/02/19 09:37:23;;;;;;;22.50;3.20;;;6.80;99.90;;;;;;5009309;28;20037;-82
2022/02/19 09:39:50;;;;;;;24.65;3.65;;;6.80;99.90;;;;;;4976808;28;20454;-81
2022/02/19 09:42:16;;;;;;;23.98;2.83;;;6.00;99.90;;;;;;5011338;28;20113;-82
2022/02/19 09:44:41;;;;;;;30.58;3.30;;;6.50;99.90;;;;;;4983399;28;20342;-83
2022/02/19 09:47:07;;;;;;;20.80;2.72;;;6.00;99.90;;;;;;5011836;28;20038;-82
2022/02/19 09:49:35;;;;;;;25.65;3.72;;;5.90;99.90;;;;;;5006442;28;20496;-84
2022/02/19 09:52:01;;;;;;;23.50;3.72;;;5.90;99.90;;;;;;4993439;28;20038;-84
2022/02/19 09:54:26;;;;;;;19.77;3.25;;;6.10;99.90;;;;;;5012385;28;20055;-84
2022/02/19 09:56:52;;;;;;;18.52;3.05;;;5.90;99.90;;;;;;5043975;28;20130;-84
2022/02/19 09:59:21;;;;;;;21.92;3.15;;;6.40;99.90;;;;;;5014261;28;20038;-84
2022/02/19 10:02:05;;;;;;;18.27;2.72;;;6.00;99.90;;;;;;5009183;28;20048;-84
2022/02/19 10:04:30;;;;;;;15.88;2.47;;;6.00;99.90;;;;;;5018553;28;20045;-84
2022/02/19 10:07:17;;;;;;;28.20;3.13;;;6.00;99.90;;;;;;5025742;28;20525;-84
2022/02/19 10:09:48;;;;;;;23.42;3.03;;;6.00;99.90;;;;;;5015215;28;20033;-85
2022/02/19 10:12:16;;;;;;;16.90;2.65;;;6.10;99.90;;;;;;5016472;28;20049;-86
2022/02/19 10:14:43;;;;;;;27.88;3.42;;;6.10;99.90;;;;;;5051040;28;20041;-84
2022/02/19 10:17:17;;;;;;;16.48;2.38;;;6.00;99.90;;;;;;5025702;28;20043;-83
2022/02/19 10:20:02;;;;;;;20.05;2.88;;;6.10;99.90;;;;;;5025169;28;20135;-83
2022/02/19 10:22:36;;;;;;;16.05;2.97;;;5.90;99.90;;;;;;5018600;28;20154;-90
2022/02/19 10:25:16;;;;;;;11.70;2.07;;;6.40;99.90;;;;;;5041960;28;20123;-86
2022/02/19 10:27:45;;;;;;;13.90;1.67;;;6.00;99.90;;;;;;5025764;28;20060;-88
2022/02/19 10:30:22;;;;;;;18.33;3.20;;;6.40;99.90;;;;;;5038565;28;20053;-87
2022/02/19 10:32:56;;;;;;;11.02;1.90;;;6.10;99.90;;;;;;5032442;28;20041;-90
2022/02/19 10:35:35;;;;;;;15.48;2.38;;;6.00;99.90;;;;;;5029102;28;20116;-89
2022/02/19 10:38:13;;;;;;;23.30;2.55;;;6.90;99.90;;;;;;5033855;28;20504;-87
2022/02/19 10:40:46;;;;;;;12.88;2.05;;;7.20;99.90;;;;;;5031886;28;20080;-88
2022/02/19 10:43:32;;;;;;;15.73;2.15;;;6.70;99.90;;;;;;5014986;28;20049;-83
2022/02/19 10:45:59;;;;;;;15.25;2.50;;;6.30;99.90;;;;;;5036936;28;20408;-82
2022/02/19 10:48:30;;;;;;;12.23;2.33;;;6.70;99.90;;;;;;5016140;28;20080;-83
2022/02/19 10:51:11;;;;;;;21.92;2.70;;;6.10;99.90;;;;;;5031418;28;20106;-82
2022/02/19 10:53:38;;;;;;;14.40;2.10;;;6.50;99.90;;;;;;5029010;28;20044;-82
2022/02/19 10:56:15;;;;;;;12.70;2.33;;;6.40;99.90;;;;;;5031067;28;20057;-82
2022/02/19 10:59:11;;;;;;;15.10;2.33;;;5.80;99.90;;;;;;5052101;28;20078;-80
2022/02/19 11:01:39;;;;;;;;;;;6.10;99.90;;;;;;5050406;28;20045;-82
2022/02/19 11:04:10;;;;;;;13.25;2.00;;;6.00;99.90;;;;;;5032574;28;19931;-84
2022/02/19 11:06:36;;;;;;;17.35;2.50;;;6.30;99.90;;;;;;5008456;28;20063;-81
2022/02/19 11:09:17;;;;;;;10.75;2.30;;;6.60;99.90;;;;;;5034277;28;20041;-80
2022/02/19 11:11:45;;;;;;;18.92;2.88;;;6.00;99.90;;;;;;5029733;28;20223;-81
2022/02/19 11:14:16;;;;;;;9.30;1.75;;;7.10;99.90;;;;;;5052162;28;20036;-83
2022/02/19 11:16:43;;;;;;;18.58;2.67;;;6.40;99.90;;;;;;5054387;28;20535;-81
2022/02/19 11:19:09;;;;;;;14.63;2.30;;;6.70;99.90;;;;;;5034278;28;20383;-80
2022/02/19 11:21:37;;;;;;;15.10;2.42;;;7.10;99.90;;;;;;5051974;28;20049;-82
2022/02/19 11:24:10;;;;;;;23.02;2.72;;;7.00;99.90;;;;;;5046458;28;20087;-81
2022/02/19 11:26:39;;;;;;;21.90;2.70;;;6.40;99.90;;;;;;5053129;28;20442;-81
2022/02/19 11:29:10;;;;;;;18.85;2.53;;;6.80;99.90;;;;;;5071901;28;20134;-80
2022/02/19 11:31:38;;;;;;;16.65;2.38;;;7.10;99.90;;;;;;5037743;28;20044;-79
2022/02/19 11:34:05;;;;;;;16.48;2.45;;;7.10;99.90;;;;;;5054067;28;20044;-81
2022/02/19 11:36:32;;;;;;;15.63;2.33;;;7.40;99.90;;;;;;5037323;28;20052;-79
2022/02/19 11:38:58;;;;;;;15.77;2.38;;;7.60;99.90;;;;;;5053698;28;20076;-81
2022/02/19 11:41:35;;;;;;;14.55;2.58;;;7.70;99.90;;;;;;5053293;28;20059;-82
2022/02/19 11:44:27;;;;;;;17.90;2.35;;;7.70;99.90;;;;;;5045597;28;20081;-79
2022/02/19 11:46:56;;;;;;;17.52;2.35;;;7.70;99.90;;;;;;5066600;28;20079;-80
2022/02/19 11:49:27;;;;;;;16.80;2.92;;;7.70;99.90;;;;;;5066714;28;20036;-82
2022/02/19 11:52:10;;;;;;;17.73;2.70;;;7.80;99.90;;;;;;5068584;28;20048;-85
2022/02/19 11:54:36;;;;;;;19.88;2.88;;;7.70;99.90;;;;;;5054383;28;20340;-84
2022/02/19 11:57:18;;;;;;;13.45;2.40;;;7.70;99.90;;;;;;5044602;28;20052;-84
2022/02/19 11:59:48;;;;;;;14.40;2.78;;;7.40;99.90;;;;;;5068373;28;20425;-85
2022/02/19 12:02:18;;;;;;;20.45;2.63;;;7.50;99.90;;;;;;5046039;28;20048;-85
2022/02/19 12:04:44;;;;;;;13.50;2.70;;;7.50;99.90;;;;;;5048052;28;20056;-85
2022/02/19 12:07:14;;;;;;;15.27;2.50;;;7.30;99.90;;;;;;5038557;28;20048;-85
2022/02/19 12:10:03;;;;;;;18.38;3.17;;;7.50;99.90;;;;;;5038743;28;20036;-85
2022/02/19 12:12:30;;;;;;;18.67;2.75;;;6.90;99.90;;;;;;5030855;28;20352;-85
2022/02/19 12:15:01;;;;;;;21.60;2.80;;;7.50;99.90;;;;;;5065251;28;20170;-85
2022/02/19 12:17:41;;;;;;;12.35;2.15;;;7.50;99.90;;;;;;5060095;28;20052;-85
2022/02/19 12:20:09;;;;;;;11.63;2.15;;;7.40;99.90;;;;;;5026426;28;20044;-85
2022/02/19 12:22:35;;;;;;;18.15;2.33;;;7.60;99.90;;;;;;5026659;28;20047;-85
2022/02/19 12:25:06;;;;;;;15.60;2.42;;;7.80;99.90;;;;;;5032793;28;20028;-85
2022/02/19 12:27:33;;;;;;;17.52;2.97;;;7.80;99.90;;;;;;5060790;28;20136;-85
2022/02/19 12:30:21;;;;;;;17.13;2.42;;;8.20;99.90;;;;;;5025300;28;20525;-85
2022/02/19 12:32:49;;;;;;;14.68;2.10;;;8.00;99.90;;;;;;5038303;28;20461;-84
2022/02/19 12:35:16;;;;;;;13.80;1.98;;;8.10;99.90;;;;;;5032501;28;20048;-84
2022/02/19 12:37:41;;;;;;;17.83;2.50;;;8.20;99.90;;;;;;5026596;28;20134;-84
2022/02/19 12:40:43;;;;;;;17.48;2.45;;;8.20;99.90;;;;;;5019721;28;20160;-83
2022/02/19 12:43:15;;;;;;;16.00;2.50;;;8.90;99.90;;;;;;5049537;28;20139;-84
2022/02/19 12:45:48;;;;;;;15.45;2.47;;;8.20;99.90;;;;;;5016092;28;20041;-81
2022/02/19 12:48:13;;;;;;;16.27;2.80;;;8.30;99.90;;;;;;5037715;28;20098;-81
2022/02/19 12:50:39;;;;;;;14.65;2.47;;;8.30;99.90;;;;;;5016044;28;20405;-81
2022/02/19 12:53:05;;;;;;;17.42;2.15;;;8.30;99.90;;;;;;5052735;28;20040;-81
2022/02/19 12:55:31;;;;;;;18.33;2.80;;;8.20;99.90;;;;;;5016168;28;20052;-81
2022/02/19 12:58:01;;;;;;;12.93;2.22;;;8.00;99.90;;;;;;5016903;28;20136;-81
2022/02/19 13:00:26;;;;;;;11.10;2.20;;;8.20;99.90;;;;;;5016817;28;20129;-81
2022/02/19 13:02:57;;;;;;;14.52;2.28;;;7.60;99.90;;;;;;5018147;28;20736;-83
2022/02/19 13:05:23;;;;;;;11.00;1.77;;;7.30;99.90;;;;;;5024700;28;20048;-82
2022/02/19 13:07:49;;;;;;;9.82;1.75;;;7.60;99.90;;;;;;5042687;28;20357;-82
2022/02/19 13:10:38;;;;;;;14.27;2.10;;;8.10;99.90;;;;;;5036157;28;20441;-84
2022/02/19 13:13:21;;;;;;;11.98;2.33;;;7.20;99.90;;;;;;4987707;28;20050;-83
2022/02/19 13:15:57;;;;;;;12.13;2.03;;;7.20;99.90;;;;;;4990617;28;20116;-83
2022/02/19 13:18:34;;;;;;;12.23;2.00;;;7.20;99.90;;;;;;4973154;28;20080;-82